Time;durP1;ratioP1;P1;durP2;ratioP2;P2;SDS_P1;SDS_P2;PMS_P1;PMS_P2;Temp;Humidity;BMP_temperature;BMP_pressure;BME280_temperature;BME280_humidity;BME280_pressure;Samples;Min_cycle;Max_cycle;Signal;HPM_P1;HPM_P2
2022/11/09 00:02:44;;;;;;;2.80;2.60;;;22.10;99.90;;;;;;6184276;28;88011;-68
2022/11/09 00:05:56;;;;;;;3.20;2.85;;;22.10;99.90;;;;;;6181518;28;88038;-68
2022/11/09 00:08:58;;;;;;;3.75;2.80;;;22.10;99.90;;;;;;6182481;28;88259;-68
2022/11/09 00:12:03;;;;;;;3.75;2.50;;;22.10;99.90;;;;;;6181975;28;89492;-68
2022/11/09 00:15:06;;;;;;;3.60;2.67;;;22.10;99.90;;;;;;6182425;28;88378;-68
2022/11/09 00:18:08;;;;;;;2.85;2.50;;;22.10;99.90;;;;;;6182357;28;89502;-68
2022/11/09 00:21:14;;;;;;;2.53;2.30;;;22.10;99.90;;;;;;6183374;28;89147;-68
2022/11/09 00:24:16;;;;;;;2.70;2.50;;;22.10;99.90;;;;;;6182027;28;90189;-68
2022/11/09 00:27:18;;;;;;;3.80;2.63;;;22.10;99.90;;;;;;6182608;28;89192;-68
2022/11/09 00:30:20;;;;;;;2.70;2.50;;;22.10;99.90;;;;;;6181652;28;89232;-68
2022/11/09 00:33:22;;;;;;;2.40;2.20;;;22.00;99.90;;;;;;6182570;28;89066;-68
2022/11/09 00:36:27;;;;;;;4.03;2.85;;;22.00;99.90;;;;;;6181497;28;89275;-68
2022/11/09 00:39:29;;;;;;;4.43;2.70;;;22.10;99.90;;;;;;6181828;28;88161;-68
2022/11/09 00:42:31;;;;;;;2.90;2.60;;;22.00;99.90;;;;;;6182903;28;89220;-68
2022/11/09 00:45:33;;;;;;;3.42;2.40;;;22.00;99.90;;;;;;6181850;28;87408;-68
2022/11/09 00:48:35;;;;;;;2.60;2.40;;;22.00;99.90;;;;;;6183053;28;89340;-68
2022/11/09 00:51:39;;;;;;;2.70;2.50;;;22.00;99.90;;;;;;6180694;28;89263;-68
2022/11/09 00:54:41;;;;;;;2.40;2.20;;;22.00;99.90;;;;;;6182173;28;90250;-68
2022/11/09 00:57:43;;;;;;;2.40;2.20;;;22.00;99.90;;;;;;6182737;28;89182;-68
2022/11/09 01:00:45;;;;;;;2.50;2.30;;;22.00;99.90;;;;;;6181989;28;89513;-68
2022/11/09 01:03:47;;;;;;;3.50;2.70;;;22.00;99.90;;;;;;6180913;28;89098;-68
2022/11/09 01:06:50;;;;;;;2.53;2.33;;;22.00;99.90;;;;;;6182767;28;88344;-68
2022/11/09 01:09:52;;;;;;;3.35;2.50;;;22.00;99.90;;;;;;6181632;28;89156;-68
2022/11/09 01:12:54;;;;;;;2.83;2.53;;;22.00;99.90;;;;;;6181913;28;89133;-68
2022/11/09 01:15:56;;;;;;;3.08;2.45;;;22.00;99.90;;;;;;6182320;28;88546;-68
2022/11/09 01:18:59;;;;;;;2.40;2.20;;;21.90;99.90;;;;;;6181699;28;88211;-68
2022/11/09 01:22:02;;;;;;;2.35;2.10;;;21.90;99.90;;;;;;6181764;28;89576;-69
2022/11/09 01:25:05;;;;;;;2.55;2.28;;;21.90;99.90;;;;;;6181876;28;90089;-68
2022/11/09 01:28:08;;;;;;;2.20;2.00;;;21.90;99.90;;;;;;6180924;28;89499;-68
2022/11/09 01:31:12;;;;;;;2.30;2.10;;;21.90;99.90;;;;;;6182034;28;89293;-68
2022/11/09 01:34:16;;;;;;;2.40;2.20;;;21.90;99.90;;;;;;6181495;28;89291;-68
2022/11/09 01:37:19;;;;;;;2.42;2.22;;;21.90;99.90;;;;;;6180317;28;89215;-68
2022/11/09 01:40:21;;;;;;;2.47;2.17;;;21.90;99.90;;;;;;6178790;28;87571;-68
2022/11/09 01:43:24;;;;;;;2.40;2.20;;;21.90;99.90;;;;;;6182490;28;89015;-68
2022/11/09 01:46:33;;;;;;;2.72;2.33;;;21.90;99.90;;;;;;6179673;28;88512;-68
2022/11/09 01:49:42;;;;;;;2.55;2.20;;;21.90;99.90;;;;;;6178622;28;89090;-68
2022/11/09 01:52:48;;;;;;;2.35;2.10;;;21.90;99.90;;;;;;6180287;28;89155;-68
2022/11/09 01:55:53;;;;;;;2.53;2.33;;;21.90;99.90;;;;;;6180395;28;90027;-68
2022/11/09 01:58:59;;;;;;;2.70;2.30;;;21.90;99.90;;;;;;6181948;28;88541;-68
2022/11/09 02:02:02;;;;;;;2.38;2.17;;;21.90;99.90;;;;;;6180835;28;89329;-68
2022/11/09 02:05:08;;;;;;;2.25;2.00;;;21.90;99.90;;;;;;6180721;28;89173;-68
2022/11/09 02:08:15;;;;;;;3.33;2.28;;;21.80;99.90;;;;;;6181093;28;89257;-68
2022/11/09 02:11:19;;;;;;;2.97;2.40;;;21.80;99.90;;;;;;6181064;28;89567;-68
2022/11/09 02:14:24;;;;;;;2.13;1.92;;;21.80;99.90;;;;;;6181668;28;89284;-68
2022/11/09 02:17:26;;;;;;;2.30;2.10;;;21.80;99.90;;;;;;6180892;28;88343;-68
2022/11/09 02:20:30;;;;;;;2.55;2.05;;;21.90;99.90;;;;;;6180068;28;89284;-68
2022/11/09 02:23:32;;;;;;;4.85;2.78;;;21.90;99.90;;;;;;6178176;28;89472;-68
2022/11/09 02:26:38;;;;;;;2.78;2.40;;;21.90;99.90;;;;;;6180669;28;89015;-68
2022/11/09 02:29:43;;;;;;;2.30;2.10;;;21.90;99.90;;;;;;6181763;28;88089;-67
2022/11/09 02:32:45;;;;;;;2.33;2.13;;;21.80;99.90;;;;;;6180721;28;89298;-68
2022/11/09 02:35:48;;;;;;;2.13;2.00;;;21.80;99.90;;;;;;6180543;28;88101;-68
2022/11/09 02:38:51;;;;;;;2.28;2.08;;;21.80;99.90;;;;;;6180450;28;89186;-68
2022/11/09 02:41:59;;;;;;;2.50;2.28;;;21.80;99.90;;;;;;6179701;28;89323;-68
2022/11/09 02:45:01;;;;;;;2.22;2.10;;;21.80;99.90;;;;;;6180168;28;89424;-68
2022/11/09 02:48:03;;;;;;;2.42;2.22;;;21.80;99.90;;;;;;6181329;28;88555;-68
2022/11/09 02:51:07;;;;;;;2.08;1.88;;;21.80;99.90;;;;;;6177210;28;89530;-68
2022/11/09 02:54:09;;;;;;;2.30;2.10;;;21.80;99.90;;;;;;6179659;28;89154;-68
2022/11/09 02:57:11;;;;;;;2.20;2.00;;;21.70;99.90;;;;;;6176918;28;90566;-68
2022/11/09 03:00:14;;;;;;;2.20;2.00;;;21.80;99.90;;;;;;6179816;28;89434;-68
2022/11/09 03:03:16;;;;;;;2.30;1.95;;;21.80;99.90;;;;;;6179601;28;89557;-68
2022/11/09 03:06:19;;;;;;;3.22;2.55;;;21.80;99.90;;;;;;6179710;28;88139;-68
2022/11/09 03:09:21;;;;;;;2.30;2.10;;;21.80;99.90;;;;;;6180027;28;88341;-68
2022/11/09 03:12:29;;;;;;;2.20;2.00;;;21.70;99.90;;;;;;6179781;28;88112;-68
2022/11/09 03:15:31;;;;;;;2.97;2.50;;;21.80;99.90;;;;;;6180615;28;89298;-68
2022/11/09 03:18:33;;;;;;;2.47;1.75;;;21.70;99.90;;;;;;6181414;28;88277;-68
2022/11/09 03:21:37;;;;;;;2.30;2.10;;;21.70;99.90;;;;;;6183180;28;89474;-68
2022/11/09 03:24:39;;;;;;;2.20;2.00;;;21.70;99.90;;;;;;6184144;28;88161;-68
2022/11/09 03:27:41;;;;;;;2.20;2.00;;;21.70;99.90;;;;;;6183849;28;90747;-68
2022/11/09 03:30:43;;;;;;;2.15;1.95;;;21.70;99.90;;;;;;6184125;28;89310;-68
2022/11/09 03:33:45;;;;;;;2.20;2.00;;;21.70;99.90;;;;;;6183483;28;88091;-68
2022/11/09 03:36:48;;;;;;;2.10;1.90;;;21.70;99.90;;;;;;6183556;28;89241;-68
2022/11/09 03:39:50;;;;;;;2.28;2.08;;;21.70;99.90;;;;;;6183815;28;89328;-68
2022/11/09 03:42:52;;;;;;;3.55;2.35;;;21.70;99.90;;;;;;6182250;28;88055;-68
2022/11/09 03:45:55;;;;;;;2.38;2.17;;;21.70;99.90;;;;;;6184821;28;89194;-68
2022/11/09 03:48:57;;;;;;;1.90;1.75;;;21.70;99.90;;;;;;6185149;28;88445;-68
2022/11/09 03:52:00;;;;;;;1.75;1.65;;;21.70;99.90;;;;;;6183804;28;89143;-68
2022/11/09 03:55:02;;;;;;;2.20;2.00;;;21.70;99.90;;;;;;6181422;28;89755;-68
2022/11/09 03:58:05;;;;;;;2.20;2.00;;;21.70;99.90;;;;;;6183406;28;90438;-68
2022/11/09 04:01:08;;;;;;;2.00;1.80;;;21.70;99.90;;;;;;6183314;28;89012;-68
2022/11/09 04:04:10;;;;;;;1.83;1.73;;;21.70;99.90;;;;;;6183888;28;89227;-68
2022/11/09 04:07:13;;;;;;;6.13;2.05;;;21.60;99.90;;;;;;6183655;28;88900;-68
2022/11/09 04:10:15;;;;;;;2.05;1.85;;;21.60;99.90;;;;;;6182444;28;89318;-68
2022/11/09 04:13:17;;;;;;;1.80;1.70;;;21.70;99.90;;;;;;6182971;28;89229;-69
2022/11/09 04:16:19;;;;;;;2.75;2.10;;;21.60;99.90;;;;;;6182815;28;90041;-68
2022/11/09 04:19:22;;;;;;;1.85;1.75;;;21.60;99.90;;;;;;6183164;28;87398;-68
2022/11/09 04:22:25;;;;;;;1.80;1.70;;;21.70;99.90;;;;;;6183102;28;89292;-68
2022/11/09 04:25:29;;;;;;;1.88;1.77;;;21.60;99.90;;;;;;6180884;28;89401;-68
2022/11/09 04:28:31;;;;;;;1.95;1.80;;;21.70;99.90;;;;;;6181291;28;90060;-68
2022/11/09 04:31:33;;;;;;;5.63;2.90;;;21.60;99.90;;;;;;6180120;28;89383;-68
2022/11/09 04:34:35;;;;;;;2.00;1.80;;;21.60;99.90;;;;;;6183149;28;89043;-68
2022/11/09 04:37:39;;;;;;;2.10;1.90;;;21.60;99.90;;;;;;6182140;28;89311;-67
2022/11/09 04:40:41;;;;;;;2.03;1.80;;;21.60;99.90;;;;;;6182649;28;89312;-68
2022/11/09 04:43:43;;;;;;;1.70;1.60;;;21.60;99.90;;;;;;6182182;28;89184;-68
2022/11/09 04:46:45;;;;;;;1.98;1.85;;;21.60;99.90;;;;;;6181297;28;89375;-68
2022/11/09 04:49:47;;;;;;;2.30;1.83;;;21.60;99.90;;;;;;6183529;28;87219;-68
2022/11/09 04:52:50;;;;;;;2.45;1.98;;;21.60;99.90;;;;;;6183355;28;88127;-68
2022/11/09 04:55:52;;;;;;;3.78;2.45;;;21.60;99.90;;;;;;6181593;28;89076;-68
2022/11/09 04:58:54;;;;;;;1.90;1.70;;;21.70;99.90;;;;;;6182894;28;90064;-68
2022/11/09 05:01:56;;;;;;;2.25;1.90;;;21.60;99.90;;;;;;6181361;28;88119;-68
2022/11/09 05:04:58;;;;;;;2.08;1.88;;;21.70;99.90;;;;;;6182568;28;89196;-68
2022/11/09 05:08:02;;;;;;;1.90;1.70;;;21.70;99.90;;;;;;6183059;28;89142;-68
2022/11/09 05:11:04;;;;;;;1.50;1.40;;;21.70;99.90;;;;;;6180703;28;89383;-68
2022/11/09 05:14:06;;;;;;;2.05;1.80;;;21.70;99.90;;;;;;6177546;28;90459;-68
2022/11/09 05:17:08;;;;;;;3.00;1.90;;;21.70;99.90;;;;;;6177555;28;89250;-68
2022/11/09 05:20:12;;;;;;;1.90;1.73;;;21.70;99.90;;;;;;6183081;28;88635;-68
2022/11/09 05:26:36;;;;;;;1.80;1.70;;;21.70;99.90;;;;;;6183264;28;87172;-68
2022/11/09 05:29:38;;;;;;;1.60;1.45;;;21.80;99.90;;;;;;6181532;28;90422;-68
2022/11/09 05:32:40;;;;;;;2.00;1.80;;;21.80;99.90;;;;;;6181005;28;89260;-68
2022/11/09 05:35:42;;;;;;;2.17;1.73;;;21.80;99.90;;;;;;6181247;28;88024;-68
2022/11/09 05:38:46;;;;;;;2.60;2.10;;;21.80;99.80;;;;;;6180059;28;88140;-68
2022/11/09 05:41:48;;;;;;;3.00;2.28;;;21.80;99.70;;;;;;6180773;28;89363;-68
2022/11/09 05:44:50;;;;;;;1.88;1.58;;;21.80;99.60;;;;;;6182750;28;89264;-68
2022/11/09 05:47:52;;;;;;;1.85;1.70;;;21.80;99.60;;;;;;6181039;28;88964;-68
2022/11/09 05:50:54;;;;;;;2.38;1.90;;;21.80;99.20;;;;;;6182506;28;88460;-68
2022/11/09 05:53:58;;;;;;;3.03;1.83;;;21.80;96.80;;;;;;6182746;28;89756;-68
2022/11/09 05:57:01;;;;;;;2.53;1.80;;;21.80;96.10;;;;;;6181447;28;89446;-66
2022/11/09 06:00:04;;;;;;;5.10;2.42;;;21.80;96.10;;;;;;6181472;28;90040;-68
2022/11/09 06:03:08;;;;;;;3.47;1.80;;;21.90;96.40;;;;;;6181913;28;89099;-67
2022/11/09 06:06:12;;;;;;;3.20;2.08;;;21.80;96.60;;;;;;6179930;28;89099;-67
2022/11/09 06:09:15;;;;;;;7.13;2.13;;;21.90;96.60;;;;;;6180616;28;89269;-67
2022/11/09 06:12:17;;;;;;;3.58;1.92;;;21.80;96.60;;;;;;6181144;28;89274;-68
2022/11/09 06:15:19;;;;;;;2.40;1.75;;;21.90;96.50;;;;;;6181497;28;89197;-67
2022/11/09 06:18:21;;;;;;;3.35;1.80;;;21.90;96.60;;;;;;6181124;28;88184;-67
2022/11/09 06:21:23;;;;;;;2.38;1.98;;;21.90;96.60;;;;;;6180520;28;88477;-67
2022/11/09 06:24:27;;;;;;;2.97;1.85;;;21.80;96.60;;;;;;6181543;28;89448;-67
2022/11/09 06:27:29;;;;;;;3.47;2.17;;;21.80;96.60;;;;;;6181348;28;89241;-67
2022/11/09 06:30:31;;;;;;;2.47;1.80;;;21.90;96.70;;;;;;6179719;28;90199;-67
2022/11/09 06:33:35;;;;;;;3.42;2.00;;;21.90;96.60;;;;;;6181314;28;89308;-67
2022/11/09 06:36:37;;;;;;;3.25;1.75;;;21.90;96.70;;;;;;6180550;28;88120;-67
2022/11/09 06:39:40;;;;;;;4.43;2.35;;;21.80;96.70;;;;;;6180757;28;88251;-67
2022/11/09 06:42:42;;;;;;;3.72;2.05;;;21.80;96.70;;;;;;6180659;28;89274;-67
2022/11/09 06:45:45;;;;;;;2.17;1.80;;;21.80;96.80;;;;;;6181703;28;89209;-67
2022/11/09 06:48:47;;;;;;;2.88;1.80;;;21.80;96.80;;;;;;6179569;28;89812;-68
2022/11/09 06:51:49;;;;;;;3.22;1.80;;;21.80;96.90;;;;;;6180798;28;87412;-68
2022/11/09 06:54:52;;;;;;;2.30;1.90;;;21.80;96.90;;;;;;6179280;28;89149;-67
2022/11/09 06:57:54;;;;;;;4.65;1.80;;;21.80;96.90;;;;;;6181004;28;89543;-67
2022/11/09 07:00:56;;;;;;;2.65;1.88;;;21.80;96.90;;;;;;6180978;28;90046;-67
2022/11/09 07:03:58;;;;;;;2.90;1.88;;;21.80;96.90;;;;;;6181708;28;89061;-68
2022/11/09 07:07:00;;;;;;;2.25;1.75;;;21.80;96.90;;;;;;6179448;28;89030;-67
2022/11/09 07:10:04;;;;;;;1.88;1.77;;;21.80;97.00;;;;;;6179714;28;88977;-68
2022/11/09 07:13:07;;;;;;;3.25;1.70;;;21.80;97.00;;;;;;6179325;28;89199;-67
2022/11/09 07:16:11;;;;;;;3.47;2.05;;;21.80;97.00;;;;;;6180614;28;89139;-68
2022/11/09 07:19:13;;;;;;;1.98;1.65;;;21.80;97.00;;;;;;6181779;28;89312;-67
2022/11/09 07:22:15;;;;;;;2.33;1.63;;;21.80;97.10;;;;;;6180595;28;88695;-67
2022/11/09 07:25:19;;;;;;;1.80;1.70;;;21.80;97.10;;;;;;6180561;28;88082;-67
2022/11/09 07:28:21;;;;;;;2.03;1.80;;;21.80;97.10;;;;;;6180048;28;89184;-67
2022/11/09 07:31:23;;;;;;;2.58;1.92;;;21.80;97.10;;;;;;6178925;28;90357;-67
2022/11/09 07:34:25;;;;;;;2.60;1.90;;;21.80;97.10;;;;;;6180915;28;89193;-67
2022/11/09 07:37:27;;;;;;;2.38;1.73;;;21.80;97.10;;;;;;6179269;28;89313;-67
2022/11/09 07:40:31;;;;;;;2.67;1.83;;;21.80;97.10;;;;;;6179463;28;89327;-68
2022/11/09 07:43:33;;;;;;;2.33;1.70;;;21.80;97.10;;;;;;6180037;28;89265;-68
2022/11/09 07:46:35;;;;;;;2.58;1.70;;;21.80;97.10;;;;;;6180008;28;88148;-67
2022/11/09 07:49:37;;;;;;;2.13;1.80;;;21.90;97.20;;;;;;6180446;28;88000;-67
2022/11/09 07:52:39;;;;;;;2.47;1.80;;;21.90;97.20;;;;;;6177748;28;88388;-68
2022/11/09 07:55:43;;;;;;;1.77;1.67;;;21.80;97.20;;;;;;6180529;28;88146;-67
2022/11/09 07:58:45;;;;;;;2.15;1.75;;;21.80;97.20;;;;;;6165513;28;89282;-68
2022/11/09 08:01:47;;;;;;;2.10;1.90;;;21.80;97.30;;;;;;6181539;28;90094;-67
2022/11/09 08:04:49;;;;;;;3.13;1.67;;;21.80;97.20;;;;;;6183375;28;89671;-67
2022/11/09 08:07:55;;;;;;;1.75;1.63;;;21.80;97.30;;;;;;6182518;28;89274;-67
2022/11/09 08:10:59;;;;;;;2.03;1.70;;;21.80;97.30;;;;;;6175468;28;89121;-67
2022/11/09 08:14:01;;;;;;;2.53;1.95;;;21.80;97.30;;;;;;6182988;28;89539;-67
2022/11/09 08:17:03;;;;;;;3.53;1.90;;;21.80;97.30;;;;;;6183626;28;89427;-67
2022/11/09 08:20:06;;;;;;;2.58;2.00;;;21.80;97.30;;;;;;6183538;28;89548;-67
2022/11/09 08:23:08;;;;;;;2.17;1.70;;;21.80;97.30;;;;;;6183685;28;88399;-67
2022/11/09 08:26:12;;;;;;;1.70;1.60;;;21.80;97.30;;;;;;6183107;28;89354;-68
2022/11/09 08:29:14;;;;;;;2.10;1.80;;;21.80;97.30;;;;;;6181920;28;89285;-67
2022/11/09 08:32:16;;;;;;;1.80;1.65;;;21.90;97.40;;;;;;6183289;28;90181;-67
2022/11/09 08:35:21;;;;;;;2.80;1.73;;;21.80;97.40;;;;;;6183588;28;89298;-67
2022/11/09 08:38:23;;;;;;;2.00;1.65;;;21.80;97.40;;;;;;6181760;28;89542;-67
2022/11/09 08:41:26;;;;;;;2.17;1.52;;;21.80;97.40;;;;;;6182165;28;89446;-68
2022/11/09 08:44:28;;;;;;;3.38;1.75;;;21.80;97.40;;;;;;6182426;28;88979;-67
2022/11/09 08:47:30;;;;;;;2.20;1.77;;;21.80;97.50;;;;;;6182416;28;89137;-67
2022/11/09 08:50:34;;;;;;;2.03;1.70;;;21.80;97.50;;;;;;6183396;28;89194;-67
2022/11/09 08:53:36;;;;;;;2.00;1.50;;;21.80;97.50;;;;;;6182209;28;88433;-67
2022/11/09 08:56:39;;;;;;;1.80;1.65;;;21.80;97.50;;;;;;6181466;28;89565;-66
2022/11/09 08:59:41;;;;;;;2.20;1.83;;;21.80;97.40;;;;;;6182308;28;87960;-66
2022/11/09 09:02:43;;;;;;;1.92;1.70;;;21.80;97.40;;;;;;6180034;28;90100;-66
2022/11/09 09:05:45;;;;;;;3.55;2.10;;;21.80;97.40;;;;;;6182570;28;89317;-66
2022/11/09 09:08:47;;;;;;;2.15;1.70;;;21.80;97.40;;;;;;6182646;28;89149;-66
2022/11/09 09:11:51;;;;;;;1.60;1.50;;;21.80;97.40;;;;;;6182076;28;89254;-66
2022/11/09 09:14:53;;;;;;;1.98;1.80;;;21.80;97.50;;;;;;6182410;28;89504;-66
2022/11/09 09:17:55;;;;;;;2.05;1.83;;;21.80;97.50;;;;;;6181979;28;89004;-66
2022/11/09 09:20:57;;;;;;;1.75;1.50;;;21.80;97.60;;;;;;6182590;28;87944;-66
2022/11/09 09:23:59;;;;;;;1.85;1.65;;;21.80;97.60;;;;;;6181928;28;87389;-66
2022/11/09 09:27:02;;;;;;;1.60;1.50;;;21.80;97.60;;;;;;6182788;28;89383;-66
2022/11/09 09:30:06;;;;;;;1.70;1.60;;;21.80;97.60;;;;;;6182032;28;89111;-66
2022/11/09 09:33:08;;;;;;;2.08;1.67;;;21.80;97.70;;;;;;6181335;28;88891;-66
2022/11/09 09:36:15;;;;;;;2.85;1.63;;;21.80;97.60;;;;;;6182176;28;88200;-66
2022/11/09 09:39:17;;;;;;;2.55;1.80;;;21.90;97.60;;;;;;6174540;28;89225;-66
2022/11/09 09:42:27;;;;;;;1.90;1.80;;;21.90;97.60;;;;;;6181927;28;89100;-66
2022/11/09 09:45:32;;;;;;;1.90;1.58;;;21.90;97.60;;;;;;6180821;28;89170;-66
2022/11/09 09:48:40;;;;;;;1.60;1.50;;;21.80;97.60;;;;;;6180864;28;89403;-66
2022/11/09 09:51:49;;;;;;;1.88;1.77;;;21.80;97.60;;;;;;6182212;28;89244;-66
2022/11/09 09:54:58;;;;;;;1.70;1.60;;;21.80;97.60;;;;;;6179848;28;88384;-66
2022/11/09 09:58:07;;;;;;;1.50;1.40;;;21.80;97.70;;;;;;6180205;28;89575;-66
2022/11/09 10:01:15;;;;;;;1.83;1.50;;;21.80;97.70;;;;;;6169263;28;89155;-66
2022/11/09 10:04:22;;;;;;;1.70;1.55;;;21.80;97.70;;;;;;6180941;28;90317;-66
2022/11/09 10:07:38;;;;;;;2.25;1.88;;;21.80;97.80;;;;;;6181338;28;89360;-66
2022/11/09 10:10:46;;;;;;;2.20;1.85;;;21.80;97.80;;;;;;6181429;28;89274;-66
2022/11/09 10:14:01;;;;;;;2.67;1.90;;;21.80;97.70;;;;;;6181099;28;89201;-66
2022/11/09 10:17:11;;;;;;;2.17;1.92;;;21.80;97.70;;;;;;6180596;28;89080;-66
2022/11/09 10:20:40;;;;;;;2.75;2.10;;;21.80;97.80;;;;;;6180575;28;89115;-66
2022/11/09 10:23:56;;;;;;;1.88;1.77;;;21.80;97.70;;;;;;6180461;28;89005;-66
2022/11/09 10:27:00;;;;;;;2.00;1.65;;;21.80;97.70;;;;;;6181313;28;88342;-66
2022/11/09 10:30:13;;;;;;;1.70;1.60;;;21.80;97.80;;;;;;6180886;28;89295;-66
2022/11/09 10:33:19;;;;;;;1.98;1.77;;;21.80;97.80;;;;;;6181094;28;89170;-66
2022/11/09 10:36:27;;;;;;;3.00;1.98;;;21.80;97.80;;;;;;6180042;28;90017;-66
2022/11/09 10:39:39;;;;;;;2.42;1.85;;;21.80;97.80;;;;;;6181411;28;89167;-66
2022/11/09 10:42:44;;;;;;;2.67;1.92;;;21.80;97.90;;;;;;6180472;28;89273;-66
2022/11/09 10:45:58;;;;;;;2.28;1.83;;;21.80;97.90;;;;;;6180912;28;89112;-66
2022/11/09 10:49:19;;;;;;;2.55;1.92;;;21.80;97.90;;;;;;6181020;28;89588;-66
2022/11/09 10:52:38;;;;;;;2.05;1.75;;;21.80;98.00;;;;;;6180586;28;89056;-66
2022/11/09 10:55:51;;;;;;;1.88;1.60;;;21.80;98.30;;;;;;6169044;28;89151;-66
2022/11/09 10:58:54;;;;;;;1.80;1.67;;;21.80;97.90;;;;;;6170485;28;88643;-66
2022/11/09 11:01:57;;;;;;;1.95;1.70;;;21.80;97.90;;;;;;6180529;28;89361;-66
2022/11/09 11:05:26;;;;;;;1.80;1.70;;;21.80;97.90;;;;;;6180155;28;87434;-66
2022/11/09 11:08:37;;;;;;;1.63;1.50;;;21.80;97.90;;;;;;6178682;28;90140;-66
2022/11/09 11:11:40;;;;;;;1.77;1.67;;;21.80;98.00;;;;;;6180160;28;89102;-66
2022/11/09 11:14:43;;;;;;;1.70;1.60;;;21.80;98.00;;;;;;6180100;28;88081;-66
2022/11/09 11:17:47;;;;;;;2.13;1.92;;;21.80;98.00;;;;;;6179976;28;89162;-66
2022/11/09 11:21:03;;;;;;;1.60;1.50;;;21.80;98.10;;;;;;6180843;28;89076;-66
2022/11/09 11:24:15;;;;;;;1.70;1.60;;;21.80;98.10;;;;;;6180815;28;88289;-66
2022/11/09 11:27:23;;;;;;;2.35;1.70;;;21.80;98.10;;;;;;6180091;28;89366;-66
2022/11/09 11:30:28;;;;;;;1.70;1.60;;;21.80;98.10;;;;;;6179523;28;88429;-66
2022/11/09 11:33:33;;;;;;;2.65;1.70;;;21.80;98.10;;;;;;6180883;28;89639;-66
2022/11/09 11:36:51;;;;;;;1.88;1.67;;;21.80;98.10;;;;;;6182407;28;89279;-66
2022/11/09 11:40:01;;;;;;;1.60;1.50;;;21.80;98.10;;;;;;6183374;28;90064;-66
2022/11/09 11:43:17;;;;;;;1.83;1.63;;;21.80;98.10;;;;;;6183992;28;89657;-66
2022/11/09 11:46:33;;;;;;;2.67;1.50;;;21.80;98.10;;;;;;6183773;28;89078;-66
2022/11/09 11:50:08;;;;;;;1.73;1.58;;;21.80;98.00;;;;;;6182744;28;88358;-66
2022/11/09 11:53:28;;;;;;;1.90;1.70;;;21.80;98.00;;;;;;6179069;28;87780;-66
2022/11/09 11:56:36;;;;;;;1.83;1.70;;;21.80;98.10;;;;;;6184542;28;89370;-66
2022/11/09 12:00:04;;;;;;;1.48;1.38;;;21.80;98.10;;;;;;6184237;28;89239;-66
2022/11/09 12:03:34;;;;;;;1.60;1.50;;;21.80;98.10;;;;;;6183415;28;88338;-66
2022/11/09 12:07:01;;;;;;;1.70;1.60;;;21.80;98.20;;;;;;6183730;28;88969;-66
2022/11/09 12:10:21;;;;;;;1.50;1.40;;;21.80;98.20;;;;;;6183625;28;89114;-66
2022/11/09 12:13:42;;;;;;;2.25;1.85;;;21.80;98.20;;;;;;6171124;28;90123;-66
2022/11/09 12:16:52;;;;;;;2.08;1.67;;;21.70;98.20;;;;;;6172015;28;88154;-66
2022/11/09 12:20:20;;;;;;;1.70;1.60;;;21.70;98.20;;;;;;6184583;28;89842;-66
2022/11/09 12:23:46;;;;;;;1.70;1.50;;;21.70;98.10;;;;;;6166091;28;89612;-66
2022/11/09 12:27:07;;;;;;;1.70;1.60;;;21.80;98.10;;;;;;6183590;28;89263;-66
2022/11/09 12:30:14;;;;;;;2.33;1.80;;;21.80;98.10;;;;;;6182646;28;89071;-66
2022/11/09 12:33:21;;;;;;;1.75;1.65;;;21.70;98.10;;;;;;6182085;28;89493;-66
2022/11/09 12:36:31;;;;;;;3.47;1.90;;;21.70;98.10;;;;;;6182207;28;88495;-66
2022/11/09 12:39:39;;;;;;;1.77;1.60;;;21.70;98.20;;;;;;6183918;28;89348;-66
2022/11/09 12:42:46;;;;;;;2.58;1.95;;;21.80;98.20;;;;;;6183232;28;89130;-66
2022/11/09 12:45:50;;;;;;;2.05;1.85;;;21.80;98.20;;;;;;6182877;28;90561;-66
2022/11/09 12:48:55;;;;;;;1.70;1.42;;;21.70;98.20;;;;;;6183664;28;89168;-66
2022/11/09 12:51:57;;;;;;;2.25;1.83;;;21.80;98.20;;;;;;6174193;28;89146;-66
2022/11/09 12:55:04;;;;;;;1.60;1.50;;;21.70;98.20;;;;;;6182949;28;89279;-66
2022/11/09 12:58:06;;;;;;;1.52;1.42;;;21.80;98.20;;;;;;6182006;28;89148;-66
2022/11/09 13:01:13;;;;;;;1.60;1.50;;;21.80;98.20;;;;;;6181589;28;89154;-66
2022/11/09 13:04:18;;;;;;;1.50;1.40;;;21.80;98.20;;;;;;6182726;28;89381;-66
2022/11/09 13:07:48;;;;;;;2.45;1.90;;;21.80;98.10;;;;;;6183055;28;88432;-66
2022/11/09 13:11:08;;;;;;;1.52;1.42;;;21.80;98.10;;;;;;6174334;28;89313;-66
2022/11/09 13:14:37;;;;;;;1.70;1.50;;;21.80;98.20;;;;;;6181375;28;89373;-66
2022/11/09 13:18:04;;;;;;;1.65;1.55;;;21.80;98.20;;;;;;6181043;28;90013;-66
2022/11/09 13:21:32;;;;;;;1.80;1.70;;;21.80;98.20;;;;;;6182070;28;89536;-66
2022/11/09 13:24:58;;;;;;;1.80;1.50;;;21.80;98.20;;;;;;6182286;28;89122;-66
2022/11/09 13:28:01;;;;;;;1.90;1.75;;;21.70;98.20;;;;;;6183786;28;88068;-66
2022/11/09 13:31:04;;;;;;;1.67;1.58;;;21.70;98.30;;;;;;6180715;28;89160;-66
2022/11/09 13:34:40;;;;;;;1.52;1.42;;;21.70;98.30;;;;;;6172761;28;88007;-66
2022/11/09 13:37:48;;;;;;;2.17;1.73;;;21.70;98.30;;;;;;6182048;28;89380;-66
2022/11/09 13:40:50;;;;;;;1.95;1.63;;;21.80;98.30;;;;;;6182671;28;87599;-66
2022/11/09 13:44:14;;;;;;;1.60;1.50;;;21.80;98.30;;;;;;6181053;28;89592;-66
2022/11/09 13:47:25;;;;;;;1.83;1.67;;;21.80;98.20;;;;;;6181106;28;89220;-66
2022/11/09 13:50:30;;;;;;;2.35;1.85;;;21.80;98.30;;;;;;6181163;28;90479;-66
2022/11/09 13:53:52;;;;;;;1.70;1.60;;;21.80;98.30;;;;;;6181805;28;89195;-66
2022/11/09 13:56:55;;;;;;;1.60;1.50;;;21.70;98.60;;;;;;6180161;28;88384;-66
2022/11/09 14:00:01;;;;;;;1.40;1.30;;;21.70;98.30;;;;;;6181591;28;89302;-66
2022/11/09 14:03:15;;;;;;;1.65;1.55;;;21.70;98.30;;;;;;6180909;28;89174;-66
2022/11/09 14:06:19;;;;;;;1.42;1.33;;;21.70;98.30;;;;;;6180904;28;89118;-66
2022/11/09 14:09:21;;;;;;;1.52;1.42;;;21.70;98.40;;;;;;6180638;28;89253;-66
2022/11/09 14:12:40;;;;;;;2.00;1.80;;;21.70;98.40;;;;;;6182755;28;87345;-66
2022/11/09 14:15:52;;;;;;;1.70;1.60;;;21.70;98.40;;;;;;6181308;28;89099;-66
2022/11/09 14:19:18;;;;;;;1.70;1.60;;;21.80;98.40;;;;;;6180769;28;89390;-65
2022/11/09 14:22:20;;;;;;;1.55;1.45;;;21.70;98.40;;;;;;6180482;28;90114;-66
2022/11/09 14:25:24;;;;;;;1.77;1.67;;;21.70;98.40;;;;;;6178546;28;89306;-66
2022/11/09 14:28:28;;;;;;;1.95;1.70;;;21.80;98.40;;;;;;6180348;28;88602;-66
2022/11/09 14:31:32;;;;;;;2.35;1.85;;;21.80;98.40;;;;;;6181242;28;89201;-66
2022/11/09 14:34:34;;;;;;;1.80;1.60;;;21.70;98.40;;;;;;6180451;28;89059;-66
2022/11/09 14:37:36;;;;;;;1.73;1.60;;;21.70;98.40;;;;;;6180864;28;89452;-66
2022/11/09 14:40:42;;;;;;;1.83;1.70;;;21.70;98.40;;;;;;6181623;28;89580;-66
2022/11/09 14:43:45;;;;;;;1.67;1.58;;;21.70;98.40;;;;;;6181282;28;88440;-66
2022/11/09 14:46:53;;;;;;;2.22;1.50;;;21.70;98.40;;;;;;6181200;28;89268;-66
2022/11/09 14:49:55;;;;;;;1.90;1.70;;;21.70;98.40;;;;;;6178946;28;89036;-66
2022/11/09 14:52:58;;;;;;;1.90;1.65;;;21.70;98.50;;;;;;6178875;28;90049;-66
2022/11/09 14:56:04;;;;;;;3.10;2.05;;;21.70;98.50;;;;;;6181286;28;89242;-66
2022/11/09 14:59:07;;;;;;;1.55;1.45;;;21.70;98.40;;;;;;6181155;28;88084;-66
2022/11/09 15:02:13;;;;;;;1.50;1.40;;;21.70;98.40;;;;;;6169556;28;89125;-66
2022/11/09 15:05:30;;;;;;;1.90;1.80;;;21.70;98.40;;;;;;6179575;28;89374;-66
2022/11/09 15:08:32;;;;;;;1.60;1.50;;;21.70;98.40;;;;;;6180277;28;89632;-66
2022/11/09 15:11:37;;;;;;;2.05;1.67;;;21.70;98.40;;;;;;6184259;28;89135;-66
2022/11/09 15:14:39;;;;;;;1.60;1.50;;;21.70;98.40;;;;;;6185244;28;88425;-66
2022/11/09 15:17:46;;;;;;;1.60;1.50;;;21.80;98.40;;;;;;6185212;28;88897;-66
2022/11/09 15:20:48;;;;;;;1.90;1.60;;;21.70;98.40;;;;;;6184055;28;88118;-66
2022/11/09 15:24:02;;;;;;;1.85;1.67;;;21.70;98.50;;;;;;6182614;28;90722;-66
2022/11/09 15:27:29;;;;;;;1.95;1.65;;;21.70;98.40;;;;;;6184418;28;89507;-66
2022/11/09 15:30:35;;;;;;;1.85;1.75;;;21.70;98.40;;;;;;6184896;28;88145;-66
2022/11/09 15:33:46;;;;;;;1.90;1.80;;;21.70;98.40;;;;;;6184421;28;89129;-66
2022/11/09 15:36:54;;;;;;;1.70;1.60;;;21.70;98.50;;;;;;6184477;28;89075;-66
2022/11/09 15:39:57;;;;;;;1.98;1.80;;;21.70;98.40;;;;;;6183867;28;89120;-66
2022/11/09 15:42:59;;;;;;;1.73;1.63;;;21.70;98.40;;;;;;6184338;28;89118;-67
2022/11/09 15:46:01;;;;;;;2.20;2.00;;;21.70;98.40;;;;;;6184828;28;88430;-66
2022/11/09 15:49:16;;;;;;;2.58;1.98;;;21.70;98.40;;;;;;6183719;28;87839;-66
2022/11/09 15:52:18;;;;;;;1.95;1.75;;;21.80;98.40;;;;;;6175972;28;89140;-66
2022/11/09 15:55:22;;;;;;;1.67;1.58;;;21.70;98.40;;;;;;6183612;28;90579;-66
2022/11/09 15:58:25;;;;;;;1.90;1.70;;;21.70;98.40;;;;;;6183633;28;88116;-66
2022/11/09 16:01:27;;;;;;;2.08;1.88;;;21.70;98.40;;;;;;6183534;28;89248;-66
2022/11/09 16:04:31;;;;;;;1.73;1.63;;;21.70;98.40;;;;;;6182555;28;88010;-66
2022/11/09 16:07:33;;;;;;;1.80;1.70;;;21.70;98.40;;;;;;6183672;28;89316;-66
2022/11/09 16:10:38;;;;;;;2.95;2.15;;;21.70;98.40;;;;;;6183544;28;89110;-66
2022/11/09 16:13:40;;;;;;;2.28;1.77;;;21.70;98.40;;;;;;6182114;28;89357;-66